Nearby METAR Reports

 

KEDC - Austin Exec, Texas, USA
Distance from station: SW 16mi, 25km
Updated: Tue, 09-Mar-2021 4:35am CST
Overcast
Overcast
 Wind from calm
Wind: Calm
Temperature: 55°F , 13°C
Dew Point: 54°F , 12°C
Humidity: 94%
Barometer: 30.26 inHg , 1024.7 hPa
Clouds: Overcast
Visibility: 10 miles , 16 km
Cloud details: Overcast 500 ft
2021/03/09 10:35 KEDC 091035Z AUTO 00000KT 10SM OVC005 13/12 A3026 RMK AO2
KGTU - Georgetown, Texas, USA
Distance from station: WNW 17mi, 28km
Updated: Tue, 09-Mar-2021 3:56am CST
Overcast
Overcast
 Wind from SSE
Wind: SSE 9 mph , 15 km/h
Temperature: 57°F , 14°C
Dew Point: 52°F , 11°C
Humidity: 82%
Barometer: 30.27 inHg , 1025.1 hPa
Clouds: Overcast
Visibility: 10 miles , 16 km
Cloud details: Overcast 1000 ft
2021/03/09 09:56 KGTU 090956Z AUTO 16008KT 10SM OVC010 14/11 A3027 RMK AO2 SLP249 T01390111
 
KATT - Austin/Mabry, Texas, USA
Distance from station: SW 28mi, 45km
Updated: Tue, 09-Mar-2021 3:59am CST
Overcast
Overcast
 Wind from SSW
Wind: SSW 6 mph , 9 km/h
Temperature: 57°F , 14°C
Dew Point: 52°F , 11°C
Humidity: 82%
Barometer: 30.28 inHg , 1025.4 hPa
Clouds: Overcast
Visibility: 10 miles , 16 km
Cloud details: Overcast 900 ft
2021/03/09 09:59 KATT 090959Z AUTO 20005KT 10SM OVC009 14/11 A3028 RMK AO2 T01440106
KAUS - Austin, Texas, USA
Distance from station: SSW 32mi, 51km
Updated: Tue, 09-Mar-2021 3:53am CST
Overcast
Overcast
 Wind from S
Wind: S 7 mph , 11 km/h
Temperature: 57°F , 14°C
Dew Point: 50°F , 10°C
Humidity: 77%
Barometer: 30.26 inHg , 1024.7 hPa
Clouds: Overcast
Visibility: 7 miles , 11 km
Cloud details: Mostly cloudy 700 ft
Overcast 1400 ft
2021/03/09 09:53 KAUS 090953Z 18006KT 7SM BKN007 OVC014 14/10 A3026 RMK AO2 SLP244 T01390100
 
KRYW - Lago Vista, Texas, USA
Distance from station: W 33mi, 54km
Updated: Tue, 09-Mar-2021 4:15am CST
Overcast
Overcast
 Wind from SSE
Wind: SSE 5 mph , 7 km/h
Temperature: 55°F , 13°C
Dew Point: 46°F , 8°C
Humidity: 72%
Barometer: 30.25 inHg , 1024.4 hPa
Clouds: Overcast
Visibility: 10 miles , 16 km
Cloud details: Overcast 1000 ft
2021/03/09 10:15 KRYW 091015Z AUTO 16004KT 10SM OVC010 13/08 A3025 RMK AO2 T01260079
KILE - Killeen Muni, Texas, USA
Distance from station: NNW 37mi, 59km
Updated: Tue, 09-Mar-2021 3:56am CST
Partly cloudy
Partly cloudy
 Wind from SSE
Wind: SSE 8 mph , 13 km/h
Temperature: 54°F , 12°C
Dew Point: 46°F , 8°C
Humidity: 77%
Barometer: 30.26 inHg , 1024.7 hPa
Clouds: Partly cloudy
Visibility: 10 miles , 16 km
Cloud details: Partly cloudy 1200 ft
2021/03/09 09:56 KILE 090956Z AUTO 16007KT 10SM SCT012 12/08 A3026 RMK AO2 SLP239 T01220083
 
KTPL - Temple/Miller, Texas, USA
Distance from station: N 38mi, 61km
Updated: Tue, 09-Mar-2021 4:16am CST
Mostly cloudy
Mostly cloudy
 Wind from SSE
Wind: SSE 14 mph , 22 km/h
Temperature: 55°F , 13°C
Dew Point: 55°F , 13°C
Humidity: 100%
Barometer: 30.26 inHg , 1024.7 hPa
Clouds: Mostly cloudy
Visibility: 10 miles , 16 km
Cloud details: Mostly cloudy 800 ft
2021/03/09 10:16 KTPL 091016Z AUTO 16012KT 10SM BKN008 13/13 A3026 RMK AO2 CIG 006V010
KGYB - Giddings-Lee, Texas, USA
Distance from station: SE 39mi, 62km
Updated: Tue, 09-Mar-2021 4:35am CST
Mist, Overcast
Mist, Overcast
 Wind from S
Wind: S 5 mph , 7 km/h
Temperature: 57°F , 14°C
Dew Point: 57°F , 14°C
Humidity: 100%
Barometer: 30.29 inHg , 1025.7 hPa
Summary: Mist
Clouds: Overcast
Visibility: 5 miles , 8 km
Cloud details: Overcast 300 ft
2021/03/09 10:35 KGYB 091035Z AUTO 17004KT 5SM BR OVC003 14/14 A3029 RMK AO2 T014401
 
KGRK - Gray/Ft Hood, Texas, USA
Distance from station: NW 42mi, 67km
Updated: Tue, 09-Mar-2021 3:58am CST
Clear
Clear
 Wind from SSE
Wind: SSE 9 mph , 15 km/h
Temperature: 52°F , 11°C
Dew Point: 45°F , 7°C
Humidity: 77%
Barometer: 30.23 inHg , 1023.7 hPa
Clouds: Clear
Visibility: 10 miles , 16 km
2021/03/09 09:58 KGRK 090958Z AUTO 16008KT 10SM CLR 11/07 A3023 RMK AO2 SLP234 T01060065
KHLR - Ft Hood/Killeen, Texas, USA
Distance from station: NNW 42mi, 67km
Updated: Tue, 09-Mar-2021 3:58am CST
Clear
Clear
 Wind from SSE
Wind: SSE 7 mph , 11 km/h
Temperature: 52°F , 11°C
Dew Point: 46°F , 8°C
Humidity: 82%
Barometer: 30.25 inHg , 1024.4 hPa
Clouds: Clear
Visibility: 10 miles , 16 km
2021/03/09 09:58 KHLR 090958Z AUTO 16006KT 10SM CLR 11/08 A3025 RMK AO2 SLP239 T01130077
 
KRWV - Caldwell, Texas, USA
Distance from station: E 43mi, 69km
Updated: Tue, 09-Mar-2021 4:15am CST
Mist, Overcast
Mist, Overcast
 Wind from SSE
Wind: SSE 5 mph , 7 km/h
Temperature: 55°F , 13°C
Dew Point: 55°F , 13°C
Humidity: 100%
Barometer: 30.29 inHg , 1025.7 hPa
Summary: Mist
Clouds: Overcast
Visibility: 5 miles , 8 km
Cloud details: Overcast 500 ft
2021/03/09 10:15 KRWV 091015Z AUTO 15004KT 5SM BR OVC005 13/13 A3029 RMK AO2 T01350132
KBMQ - Burnet, Texas, USA
Distance from station: WNW 50mi, 80km
Updated: Tue, 09-Mar-2021 3:53am CST
Few Clouds
Few Clouds
 Wind from calm
Wind: Calm
Temperature: 52°F , 11°C
Dew Point: 46°F , 8°C
Humidity: 82%
Barometer: 30.26 inHg , 1024.7 hPa
Clouds: Few Clouds
Visibility: 10 miles , 16 km
Cloud details: Few Clouds 1400 ft
2021/03/09 09:53 KBMQ 090953Z AUTO 00000KT 10SM FEW014 11/08 A3026 RMK AO2 SLP238 T01110078 $